Time;durP1;ratioP1;P1;durP2;ratioP2;P2;SDS_P1;SDS_P2;PMS_P1;PMS_P2;Temp;Humidity;BMP_temperature;BMP_pressure;BME280_temperature;BME280_humidity;BME280_pressure;Samples;Min_cycle;Max_cycle;Signal;HPM_P1;HPM_P2
2022/12/04 00:01:05;;;;;;;102.67;42.17;;;0.50;99.90;;;;;;5030512;28;20586;-72
2022/12/04 00:03:31;;;;;;;96.73;42.57;;;0.50;99.90;;;;;;5031495;28;20309;-72
2022/12/04 00:06:13;;;;;;;89.40;38.63;;;0.50;99.90;;;;;;5025534;28;20296;-72
2022/12/04 00:08:39;;;;;;;91.30;40.33;;;0.50;99.90;;;;;;5027806;28;20221;-75
2022/12/04 00:11:06;;;;;;;92.33;40.13;;;0.50;99.90;;;;;;5029282;28;20710;-72
2022/12/04 00:13:32;;;;;;;86.57;39.27;;;0.40;99.90;;;;;;5026928;28;20293;-72
2022/12/04 00:15:59;;;;;;;99.30;41.63;;;0.40;99.90;;;;;;5025721;28;20253;-72
2022/12/04 00:18:26;;;;;;;105.93;41.77;;;0.50;99.90;;;;;;5029551;28;20177;-71
2022/12/04 00:20:51;;;;;;;92.30;39.40;;;0.40;99.90;;;;;;5025031;28;20227;-74
2022/12/04 00:23:17;;;;;;;95.13;41.70;;;0.40;99.90;;;;;;5031287;28;20714;-71
2022/12/04 00:25:47;;;;;;;94.33;41.40;;;0.40;99.90;;;;;;5026911;28;20204;-72
2022/12/04 00:28:15;;;;;;;97.60;41.60;;;0.50;99.90;;;;;;5025203;28;20340;-72
2022/12/04 00:30:41;;;;;;;94.27;41.00;;;0.50;99.90;;;;;;5027470;28;20715;-70
2022/12/04 00:33:07;;;;;;;91.20;40.43;;;0.50;99.90;;;;;;5026379;28;20320;-72
2022/12/04 00:35:32;;;;;;;87.97;39.47;;;0.50;99.90;;;;;;5025528;28;20694;-71
2022/12/04 00:37:58;;;;;;;97.20;41.03;;;0.50;99.90;;;;;;5029235;28;20816;-72
2022/12/04 00:40:23;;;;;;;93.63;40.17;;;0.50;99.90;;;;;;5030862;28;20204;-72
2022/12/04 00:42:49;;;;;;;97.10;39.67;;;0.50;99.90;;;;;;5028292;28;20369;-76
2022/12/04 00:45:14;;;;;;;100.93;41.87;;;0.50;99.90;;;;;;5026534;28;20179;-71
2022/12/04 00:47:40;;;;;;;99.47;40.37;;;0.50;99.90;;;;;;5027100;28;20178;-72
2022/12/04 00:50:06;;;;;;;99.17;42.17;;;0.50;99.90;;;;;;5030565;28;20219;-72
2022/12/04 00:52:32;;;;;;;93.20;39.63;;;0.60;99.90;;;;;;5029553;28;20201;-72
2022/12/04 00:54:58;;;;;;;88.73;38.60;;;0.50;99.90;;;;;;5021144;28;20636;-75
2022/12/04 00:57:23;;;;;;;91.03;39.70;;;0.50;99.90;;;;;;5027275;28;20207;-72
2022/12/04 00:59:49;;;;;;;99.47;41.90;;;0.50;99.90;;;;;;5026374;28;20546;-72
2022/12/04 01:02:14;;;;;;;97.47;40.87;;;0.50;99.90;;;;;;5025229;28;20646;-72
2022/12/04 01:04:40;;;;;;;94.20;41.67;;;0.50;99.90;;;;;;5029986;28;20219;-72
2022/12/04 01:07:05;;;;;;;97.40;38.93;;;0.50;99.90;;;;;;5023659;28;20210;-72
2022/12/04 01:09:32;;;;;;;98.63;42.53;;;0.50;99.90;;;;;;5029577;28;20223;-72
2022/12/04 01:11:57;;;;;;;102.30;42.33;;;0.50;99.90;;;;;;5029108;28;20182;-72
2022/12/04 01:14:23;;;;;;;99.03;40.47;;;0.50;99.90;;;;;;5026194;28;20218;-74
2022/12/04 01:16:48;;;;;;;100.10;41.80;;;0.60;99.90;;;;;;5023867;28;20205;-72
2022/12/04 01:19:14;;;;;;;100.73;41.20;;;0.50;99.90;;;;;;5027711;28;20207;-71
2022/12/04 01:21:40;;;;;;;100.90;43.03;;;0.50;99.90;;;;;;5024236;28;20246;-73
2022/12/04 01:24:06;;;;;;;97.73;41.23;;;0.50;99.90;;;;;;5025706;28;20221;-72
2022/12/04 01:26:32;;;;;;;102.77;42.10;;;0.50;99.90;;;;;;5031091;28;20283;-74
2022/12/04 01:28:58;;;;;;;97.63;41.40;;;0.50;99.90;;;;;;5020385;28;20431;-72
2022/12/04 01:31:24;;;;;;;95.97;42.80;;;0.50;99.90;;;;;;5029353;28;20216;-76
2022/12/04 01:33:50;;;;;;;96.70;40.60;;;0.50;99.90;;;;;;5024748;28;20218;-72
2022/12/04 01:36:19;;;;;;;97.83;43.43;;;0.50;99.90;;;;;;5023922;28;20522;-72
2022/12/04 01:38:45;;;;;;;98.60;42.33;;;0.50;99.90;;;;;;5026323;28;20180;-73
2022/12/04 01:41:14;;;;;;;103.90;43.07;;;0.50;99.90;;;;;;5024728;28;20629;-73
2022/12/04 01:43:40;;;;;;;104.00;43.70;;;0.50;99.90;;;;;;5023973;28;20216;-72
2022/12/04 01:46:06;;;;;;;108.00;44.90;;;0.50;99.90;;;;;;5028454;28;20215;-72
2022/12/04 01:48:33;;;;;;;107.33;43.40;;;0.50;99.90;;;;;;5023235;28;20215;-73
2022/12/04 01:51:13;;;;;;;106.70;43.23;;;0.50;99.90;;;;;;5025077;28;20172;-72
2022/12/04 01:53:42;;;;;;;108.50;42.40;;;0.50;99.90;;;;;;5023661;28;20276;-72
2022/12/04 01:56:09;;;;;;;102.67;40.87;;;0.60;99.90;;;;;;5022751;28;20215;-74
2022/12/04 01:58:41;;;;;;;111.67;48.83;;;0.60;99.90;;;;;;5028990;28;20211;-72
2022/12/04 02:01:08;;;;;;;111.60;43.97;;;0.50;99.90;;;;;;5024598;28;20200;-72
2022/12/04 02:03:34;;;;;;;112.47;44.90;;;0.50;99.90;;;;;;5023439;28;20325;-73
2022/12/04 02:06:00;;;;;;;115.43;44.47;;;0.50;99.90;;;;;;5027136;28;20201;-72
2022/12/04 02:08:27;;;;;;;105.47;46.00;;;0.50;99.90;;;;;;5025448;28;20237;-72
2022/12/04 02:10:52;;;;;;;111.93;46.97;;;0.50;99.90;;;;;;5022845;28;20216;-74
2022/12/04 02:13:48;;;;;;;107.37;45.73;;;0.40;99.90;;;;;;5028215;28;20246;-71
2022/12/04 02:16:35;;;;;;;112.13;45.13;;;0.40;99.90;;;;;;5023274;28;20201;-71
2022/12/04 02:19:10;;;;;;;106.90;45.90;;;0.40;99.90;;;;;;5026519;28;20255;-72
2022/12/04 02:21:39;;;;;;;114.37;47.37;;;0.50;99.90;;;;;;5023701;28;20660;-72
2022/12/04 02:24:19;;;;;;;119.43;47.03;;;0.50;99.90;;;;;;5023616;28;20222;-72
2022/12/04 02:26:54;;;;;;;119.03;48.00;;;0.50;99.90;;;;;;5025729;28;20584;-74
2022/12/04 02:29:37;;;;;;;118.60;47.60;;;0.40;99.90;;;;;;5023472;28;20226;-74
2022/12/04 02:32:12;;;;;;;119.03;47.27;;;0.50;99.90;;;;;;5027573;28;20207;-74
2022/12/04 02:34:49;;;;;;;108.20;44.77;;;0.40;99.90;;;;;;5024374;28;20209;-74
2022/12/04 02:37:28;;;;;;;111.57;45.80;;;0.40;99.90;;;;;;5022591;28;20197;-75
2022/12/04 02:40:06;;;;;;;114.67;46.03;;;0.50;99.90;;;;;;5024423;28;20262;-74
2022/12/04 02:42:41;;;;;;;116.17;47.17;;;0.50;99.90;;;;;;5022571;28;20208;-74
2022/12/04 02:45:19;;;;;;;116.97;47.40;;;0.50;99.90;;;;;;5024550;28;20667;-74
2022/12/04 02:47:45;;;;;;;117.97;46.60;;;0.60;99.90;;;;;;5024409;28;20202;-74
2022/12/04 02:50:14;;;;;;;117.83;47.50;;;0.50;99.90;;;;;;5027817;28;20687;-76
2022/12/04 02:53:08;;;;;;;121.77;48.23;;;0.50;99.90;;;;;;5025432;28;20248;-75
2022/12/04 02:55:45;;;;;;;116.53;47.90;;;0.50;99.90;;;;;;5020138;28;20201;-76
2022/12/04 02:58:22;;;;;;;122.93;46.03;;;0.40;99.90;;;;;;5024893;28;20211;-74
2022/12/04 03:00:51;;;;;;;118.63;46.90;;;0.40;99.90;;;;;;5024143;28;20230;-74
2022/12/04 03:03:24;;;;;;;118.13;48.93;;;0.50;99.90;;;;;;5022010;28;20541;-74
2022/12/04 03:06:06;;;;;;;131.37;50.37;;;0.50;99.90;;;;;;5025285;28;20179;-74
2022/12/04 03:08:38;;;;;;;117.13;47.93;;;0.50;99.90;;;;;;5027278;28;20208;-74
2022/12/04 03:11:04;;;;;;;114.30;46.93;;;0.50;99.90;;;;;;5019796;28;20205;-75
2022/12/04 03:13:42;;;;;;;119.97;47.33;;;0.50;99.90;;;;;;5022336;28;20244;-74
2022/12/04 03:16:29;;;;;;;114.53;49.33;;;0.60;99.90;;;;;;5019088;28;20235;-74
2022/12/04 03:19:00;;;;;;;123.30;48.93;;;0.60;99.90;;;;;;5017803;28;20209;-75
2022/12/04 03:21:30;;;;;;;122.00;48.57;;;0.60;99.90;;;;;;5021907;28;20183;-74
2022/12/04 03:24:26;;;;;;;125.13;51.23;;;0.60;99.90;;;;;;5018187;28;20649;-75
2022/12/04 03:27:35;;;;;;;118.57;46.30;;;0.50;99.90;;;;;;5018154;28;20700;-75
2022/12/04 03:30:03;;;;;;;122.53;47.93;;;0.60;99.90;;;;;;5018452;28;20218;-75
2022/12/04 03:32:34;;;;;;;132.43;48.20;;;0.50;99.90;;;;;;5019653;28;20265;-74
2022/12/04 03:35:13;;;;;;;128.20;48.43;;;0.60;99.90;;;;;;5022098;28;20646;-74
2022/12/04 03:37:58;;;;;;;118.57;48.07;;;0.50;99.90;;;;;;5023210;28;20276;-75
2022/12/04 03:40:37;;;;;;;119.63;46.53;;;0.60;99.90;;;;;;5020490;28;20211;-75
2022/12/04 03:43:14;;;;;;;118.93;46.47;;;0.60;99.90;;;;;;5025162;28;20216;-74
2022/12/04 03:45:44;;;;;;;115.00;47.80;;;0.60;99.90;;;;;;5024443;28;20233;-75
2022/12/04 03:48:14;;;;;;;122.37;46.33;;;0.60;99.90;;;;;;5022163;28;20184;-74
2022/12/04 03:50:57;;;;;;;116.07;44.80;;;0.60;99.90;;;;;;5023385;28;20319;-74
2022/12/04 03:53:49;;;;;;;118.67;44.97;;;0.60;99.90;;;;;;5023557;28;20219;-74
2022/12/04 03:56:28;;;;;;;108.33;43.43;;;0.60;99.90;;;;;;5027318;28;20203;-72
2022/12/04 03:59:08;;;;;;;110.40;46.23;;;0.60;99.90;;;;;;5019907;28;20212;-72
2022/12/04 04:01:40;;;;;;;121.47;47.10;;;0.60;99.90;;;;;;5026845;28;20576;-73
2022/12/04 04:04:11;;;;;;;107.53;45.07;;;0.60;99.90;;;;;;5028236;28;20254;-73
2022/12/04 04:06:43;;;;;;;115.93;47.20;;;0.60;99.90;;;;;;5022220;28;20223;-72
2022/12/04 04:09:14;;;;;;;105.43;43.93;;;0.60;99.90;;;;;;5021589;28;20207;-73
2022/12/04 04:12:05;;;;;;;109.17;43.93;;;0.60;99.90;;;;;;5022669;28;20329;-72
2022/12/04 04:26:03;;;;;;;107.07;44.30;;;0.70;99.90;;;;;;4970063;28;20261;-74
2022/12/04 04:28:35;;;;;;;110.00;45.73;;;0.70;99.90;;;;;;5025069;28;20208;-74
2022/12/04 04:31:06;;;;;;;111.70;44.37;;;0.60;99.90;;;;;;5021053;28;20214;-74
2022/12/04 04:33:36;;;;;;;106.17;44.90;;;0.70;99.90;;;;;;5021635;28;20224;-75
2022/12/04 04:36:15;;;;;;;107.97;44.43;;;0.70;99.90;;;;;;5021180;28;20177;-73
2022/12/04 04:38:51;;;;;;;104.80;43.57;;;0.70;99.90;;;;;;5025830;28;20209;-75
2022/12/04 04:41:47;;;;;;;112.93;43.87;;;0.70;99.90;;;;;;5025373;28;20228;-76
2022/12/04 04:44:28;;;;;;;118.20;47.17;;;0.70;99.90;;;;;;5022565;28;20458;-74
2022/12/04 04:47:00;;;;;;;112.43;45.17;;;0.70;99.90;;;;;;5019009;28;20211;-74
2022/12/04 04:49:29;;;;;;;107.47;43.07;;;0.70;99.90;;;;;;5026254;28;20247;-75
2022/12/04 04:51:56;;;;;;;111.47;44.60;;;0.80;99.90;;;;;;5020399;28;20214;-75
2022/12/04 04:54:22;;;;;;;101.43;40.47;;;0.70;99.90;;;;;;5021808;28;20637;-74
2022/12/04 04:56:48;;;;;;;110.83;44.13;;;0.70;99.90;;;;;;5022216;28;20206;-75
2022/12/04 04:59:14;;;;;;;109.50;44.17;;;0.70;99.90;;;;;;5020221;28;20238;-75
2022/12/04 05:01:42;;;;;;;106.83;43.73;;;0.70;99.90;;;;;;5024934;28;20202;-74
2022/12/04 05:04:07;;;;;;;114.03;42.50;;;0.80;99.90;;;;;;5026347;28;20222;-75
2022/12/04 05:06:34;;;;;;;102.80;41.67;;;0.80;99.90;;;;;;5023583;28;20210;-75
2022/12/04 05:08:59;;;;;;;110.70;43.00;;;0.80;99.90;;;;;;5019957;28;20215;-75
2022/12/04 05:11:25;;;;;;;100.13;41.77;;;0.80;99.90;;;;;;5023603;28;20294;-75
2022/12/04 05:13:51;;;;;;;110.50;43.00;;;0.80;99.90;;;;;;5022827;28;20211;-75
2022/12/04 05:16:17;;;;;;;101.00;41.87;;;0.80;99.90;;;;;;5027770;28;20679;-75
2022/12/04 05:19:52;;;;;;;97.10;42.00;;;0.80;99.90;;;;;;5021578;28;20785;-75
2022/12/04 05:21:29;;;;;;;100.90;44.40;;;0.80;99.90;;;;;;5027376;28;20309;-75
2022/12/04 05:23:55;;;;;;;97.97;41.27;;;0.80;99.90;;;;;;5024190;28;20200;-74
2022/12/04 05:26:20;;;;;;;106.27;42.87;;;0.80;99.90;;;;;;5030368;28;20208;-75
2022/12/04 05:28:46;;;;;;;102.70;43.20;;;0.90;99.90;;;;;;5027468;28;20700;-76
2022/12/04 05:31:12;;;;;;;100.17;42.77;;;0.90;99.90;;;;;;5024179;28;20211;-75
2022/12/04 05:33:37;;;;;;;99.20;41.67;;;0.90;99.90;;;;;;5027047;28;20763;-75
2022/12/04 05:36:05;;;;;;;115.20;44.87;;;0.90;99.90;;;;;;5026365;28;20208;-75
2022/12/04 05:38:31;;;;;;;99.87;42.90;;;0.80;99.90;;;;;;5025220;28;20228;-75
2022/12/04 05:40:58;;;;;;;94.80;42.37;;;0.90;99.90;;;;;;5028468;28;20291;-75
2022/12/04 05:43:24;;;;;;;106.30;42.33;;;0.90;99.90;;;;;;5027237;28;20203;-75
2022/12/04 05:45:49;;;;;;;106.33;42.33;;;0.80;99.90;;;;;;5019636;28;20559;-75
2022/12/04 05:48:15;;;;;;;99.30;39.53;;;0.90;99.90;;;;;;5029264;28;20175;-75
2022/12/04 05:50:40;;;;;;;101.57;41.70;;;0.90;99.90;;;;;;5024928;28;20320;-75
2022/12/04 05:53:06;;;;;;;98.33;40.07;;;0.90;99.90;;;;;;5021953;28;20243;-75
2022/12/04 05:55:32;;;;;;;96.80;41.60;;;0.90;99.90;;;;;;5028416;28;20204;-75
2022/12/04 05:57:57;;;;;;;100.93;42.73;;;1.00;99.90;;;;;;5022823;28;20204;-74
2022/12/04 06:00:23;;;;;;;101.63;40.67;;;1.00;99.90;;;;;;5029818;28;20179;-74
2022/12/04 06:02:48;;;;;;;103.67;42.20;;;0.90;99.90;;;;;;5027580;28;20222;-75
2022/12/04 06:05:14;;;;;;;97.30;42.70;;;0.90;99.90;;;;;;5023900;28;20214;-74
2022/12/04 06:07:40;;;;;;;99.23;41.37;;;0.90;99.90;;;;;;5024816;28;20210;-74
2022/12/04 06:10:05;;;;;;;100.10;42.50;;;0.90;99.90;;;;;;5024517;28;20729;-74
2022/12/04 06:12:31;;;;;;;107.80;41.53;;;0.90;99.90;;;;;;5022808;28;20713;-75
2022/12/04 06:14:57;;;;;;;101.83;41.97;;;0.90;99.90;;;;;;5026527;28;20197;-76
2022/12/04 06:17:22;;;;;;;97.70;40.53;;;1.00;99.90;;;;;;5029444;28;20218;-74
2022/12/04 06:19:48;;;;;;;96.87;40.50;;;1.00;99.90;;;;;;5021825;28;20231;-74
2022/12/04 06:22:14;;;;;;;94.37;40.37;;;1.00;99.90;;;;;;5027211;28;20206;-75
2022/12/04 06:24:39;;;;;;;101.97;42.03;;;1.00;99.90;;;;;;5023074;28;20263;-74
2022/12/04 06:27:05;;;;;;;96.93;41.40;;;1.00;99.90;;;;;;5029060;28;20173;-75
2022/12/04 06:29:31;;;;;;;96.20;40.03;;;1.00;99.90;;;;;;5027137;28;20226;-75
2022/12/04 06:31:57;;;;;;;100.10;41.50;;;1.00;99.90;;;;;;5021702;28;20246;-74
2022/12/04 06:34:23;;;;;;;111.23;45.67;;;1.00;99.90;;;;;;5026203;28;20229;-74
2022/12/04 06:36:49;;;;;;;95.53;41.37;;;0.90;99.90;;;;;;5025144;28;20208;-75
2022/12/04 06:39:14;;;;;;;107.43;43.80;;;0.90;99.90;;;;;;5022992;28;20239;-74
2022/12/04 06:41:40;;;;;;;101.67;41.53;;;1.00;99.90;;;;;;5026152;28;20566;-74
2022/12/04 06:44:05;;;;;;;97.23;40.33;;;0.90;99.90;;;;;;5024309;28;20292;-74
2022/12/04 06:46:32;;;;;;;101.37;41.87;;;0.90;99.90;;;;;;5025936;28;20298;-75
2022/12/04 06:49:00;;;;;;;103.93;42.13;;;1.00;99.90;;;;;;5024171;28;20705;-75
2022/12/04 06:51:31;;;;;;;101.77;41.87;;;0.90;99.90;;;;;;5025498;28;20200;-74
2022/12/04 06:53:57;;;;;;;105.90;41.90;;;1.00;99.90;;;;;;5023258;28;20208;-74
2022/12/04 06:56:25;;;;;;;99.77;41.47;;;1.00;99.90;;;;;;5027234;28;20207;-74
2022/12/04 06:58:54;;;;;;;103.33;43.70;;;1.00;99.90;;;;;;5020018;28;20297;-74
2022/12/04 07:01:23;;;;;;;98.43;40.90;;;1.00;99.90;;;;;;5025780;28;20650;-75
2022/12/04 07:03:49;;;;;;;99.23;42.57;;;1.00;99.90;;;;;;5024787;28;20213;-75
2022/12/04 07:06:25;;;;;;;105.00;42.33;;;1.00;99.90;;;;;;5023055;28;20189;-74
2022/12/04 07:09:22;;;;;;;101.63;41.23;;;1.00;99.90;;;;;;5028095;28;20212;-75
2022/12/04 07:11:47;;;;;;;102.67;41.03;;;1.00;99.90;;;;;;5008058;28;20262;-76
2022/12/04 07:14:13;;;;;;;98.63;39.97;;;1.00;99.90;;;;;;5026329;28;20213;-75
2022/12/04 07:16:40;;;;;;;104.57;41.93;;;1.00;99.90;;;;;;5034894;28;20209;-75
2022/12/04 07:19:07;;;;;;;104.73;42.00;;;1.10;99.90;;;;;;5028508;28;20587;-74
2022/12/04 07:21:33;;;;;;;93.93;40.67;;;1.10;99.90;;;;;;5035673;28;20247;-74
2022/12/04 07:24:00;;;;;;;104.07;41.53;;;1.10;99.90;;;;;;5031226;28;20198;-74
2022/12/04 07:26:27;;;;;;;102.50;42.03;;;1.10;99.90;;;;;;5034529;28;20218;-74
2022/12/04 07:28:54;;;;;;;105.87;42.63;;;1.10;99.90;;;;;;5031080;28;20695;-75
2022/12/04 07:31:22;;;;;;;103.20;41.97;;;1.10;99.90;;;;;;5031787;28;20207;-76
2022/12/04 07:33:49;;;;;;;102.23;41.43;;;1.10;99.90;;;;;;5025884;28;20789;-74
2022/12/04 07:36:21;;;;;;;98.43;43.63;;;1.10;99.90;;;;;;5033313;28;20582;-74
2022/12/04 07:38:47;;;;;;;96.33;40.37;;;1.10;99.90;;;;;;5028249;28;20209;-74
2022/12/04 07:41:13;;;;;;;100.83;42.50;;;1.10;99.90;;;;;;5027886;28;20809;-74
2022/12/04 07:43:38;;;;;;;94.27;39.47;;;1.10;99.90;;;;;;5032936;28;20215;-74
2022/12/04 07:46:07;;;;;;;99.30;43.20;;;1.10;99.90;;;;;;5028267;28;20282;-74
2022/12/04 07:48:32;;;;;;;97.27;40.07;;;1.10;99.90;;;;;;5031762;28;20212;-74
2022/12/04 07:51:04;;;;;;;99.60;41.30;;;1.10;99.90;;;;;;5030319;28;20242;-74
2022/12/04 07:53:30;;;;;;;105.57;41.70;;;1.10;99.90;;;;;;5024763;28;20229;-74
2022/12/04 07:55:56;;;;;;;97.67;40.93;;;1.10;99.90;;;;;;5031282;28;20201;-76
2022/12/04 07:58:21;;;;;;;97.57;40.37;;;1.10;99.90;;;;;;5031697;28;20206;-75
2022/12/04 08:00:47;;;;;;;91.83;39.77;;;1.20;99.90;;;;;;5025225;28;20213;-73
2022/12/04 08:03:12;;;;;;;95.43;38.30;;;1.20;99.90;;;;;;5033584;28;20678;-74
2022/12/04 08:05:38;;;;;;;96.87;41.60;;;1.20;99.90;;;;;;5030638;28;20220;-74
2022/12/04 08:08:04;;;;;;;91.80;41.07;;;1.20;99.90;;;;;;5024773;28;20204;-73
2022/12/04 08:10:29;;;;;;;97.77;43.23;;;1.20;99.90;;;;;;5032767;28;20244;-73
2022/12/04 08:12:55;;;;;;;99.23;40.30;;;1.20;99.90;;;;;;5027266;28;20219;-74
2022/12/04 08:15:20;;;;;;;92.87;40.60;;;1.30;99.90;;;;;;5027857;28;20687;-73
2022/12/04 08:17:46;;;;;;;95.17;40.47;;;1.30;99.90;;;;;;5031757;28;20183;-74
2022/12/04 08:20:12;;;;;;;96.27;39.70;;;1.30;99.90;;;;;;5030750;28;20727;-74
2022/12/04 08:22:37;;;;;;;99.07;39.70;;;1.30;99.90;;;;;;5026909;28;20776;-73
2022/12/04 08:25:03;;;;;;;91.37;39.73;;;1.30;99.90;;;;;;5026809;28;20216;-73
2022/12/04 08:27:28;;;;;;;89.57;39.20;;;1.30;99.90;;;;;;5024160;28;20220;-74
2022/12/04 08:29:54;;;;;;;89.70;37.90;;;1.30;99.90;;;;;;5024653;28;20548;-74
2022/12/04 08:32:20;;;;;;;91.90;38.73;;;1.30;99.90;;;;;;5028078;28;20294;-73
2022/12/04 08:34:45;;;;;;;91.07;40.70;;;1.40;99.90;;;;;;5022179;28;20205;-74
2022/12/04 08:37:11;;;;;;;91.70;39.17;;;1.40;99.90;;;;;;5025209;28;20296;-73
2022/12/04 08:39:36;;;;;;;97.40;40.67;;;1.40;99.90;;;;;;5025876;28;20324;-73
2022/12/04 08:42:02;;;;;;;107.57;43.50;;;1.40;99.90;;;;;;5027521;28;20176;-73
2022/12/04 08:44:28;;;;;;;94.00;38.13;;;1.40;99.90;;;;;;5031637;28;20235;-73
2022/12/04 08:46:53;;;;;;;85.03;38.13;;;1.30;99.90;;;;;;5023946;28;20208;-73
2022/12/04 08:49:19;;;;;;;84.67;37.53;;;1.30;99.90;;;;;;5027239;28;20269;-74
2022/12/04 08:51:44;;;;;;;92.27;39.70;;;1.30;99.90;;;;;;5027680;28;20227;-73
2022/12/04 08:54:11;;;;;;;95.53;40.43;;;1.40;99.90;;;;;;5024395;28;20303;-74
2022/12/04 08:56:37;;;;;;;89.77;39.17;;;1.30;99.90;;;;;;5028331;28;20198;-73
2022/12/04 08:59:03;;;;;;;97.63;40.23;;;1.40;99.90;;;;;;5025825;28;20702;-74
2022/12/04 09:01:29;;;;;;;92.57;39.93;;;1.30;99.90;;;;;;5026552;28;20215;-76
2022/12/04 09:03:55;;;;;;;90.60;40.77;;;1.40;99.90;;;;;;5028750;28;20218;-74
2022/12/04 09:06:21;;;;;;;99.67;40.43;;;1.40;99.90;;;;;;5023920;28;20305;-74
2022/12/04 09:08:47;;;;;;;95.77;39.77;;;1.40;99.90;;;;;;5025733;28;20194;-73
2022/12/04 09:11:15;;;;;;;95.70;39.93;;;1.40;99.90;;;;;;5028076;28;20204;-74
2022/12/04 09:13:42;;;;;;;94.00;41.03;;;1.40;99.90;;;;;;5024672;28;20219;-74
2022/12/04 09:16:10;;;;;;;94.77;40.20;;;1.50;99.90;;;;;;5029655;28;20709;-74
2022/12/04 09:18:37;;;;;;;89.53;37.40;;;1.40;99.90;;;;;;5027988;28;20211;-73
2022/12/04 09:21:05;;;;;;;100.33;41.77;;;1.50;99.90;;;;;;5025719;28;20591;-74
2022/12/04 09:23:33;;;;;;;101.00;39.27;;;1.50;99.90;;;;;;5026939;28;20213;-73
2022/12/04 09:25:59;;;;;;;97.93;41.70;;;1.40;99.90;;;;;;5024156;28;20302;-74
2022/12/04 09:28:24;;;;;;;92.47;38.87;;;1.40;99.90;;;;;;5024519;28;20208;-74
2022/12/04 09:30:58;;;;;;;88.50;37.70;;;1.50;99.90;;;;;;5027854;28;20224;-74
2022/12/04 09:33:23;;;;;;;98.50;39.70;;;1.50;99.90;;;;;;5027850;28;20206;-73
2022/12/04 09:35:49;;;;;;;94.60;37.50;;;1.50;99.90;;;;;;5024538;28;20214;-74
2022/12/04 09:38:15;;;;;;;95.23;39.53;;;1.50;99.90;;;;;;5027935;28;20231;-75
2022/12/04 09:41:08;;;;;;;92.30;38.73;;;1.60;99.90;;;;;;5023992;28;20241;-74
2022/12/04 09:43:41;;;;;;;91.33;38.13;;;1.50;99.90;;;;;;5028317;28;20226;-74
2022/12/04 09:46:17;;;;;;;92.70;35.90;;;1.60;99.90;;;;;;5025214;28;20220;-73
2022/12/04 09:48:47;;;;;;;85.70;37.30;;;1.60;99.90;;;;;;5021572;28;20579;-74
2022/12/04 09:51:17;;;;;;;91.70;37.97;;;1.60;99.90;;;;;;5028640;28;20671;-74
2022/12/04 09:53:59;;;;;;;90.57;37.73;;;1.60;99.90;;;;;;5024978;28;20242;-73
2022/12/04 09:56:29;;;;;;;94.77;38.67;;;1.60;99.90;;;;;;5028441;28;20236;-72
2022/12/04 09:59:03;;;;;;;82.77;38.47;;;1.60;99.90;;;;;;5028106;28;20238;-70
2022/12/04 10:01:40;;;;;;;85.57;37.07;;;1.60;99.90;;;;;;5023948;28;20207;-71
2022/12/04 10:04:09;;;;;;;93.13;39.67;;;1.60;99.90;;;;;;5027363;28;20213;-71
2022/12/04 10:06:57;;;;;;;97.40;38.23;;;1.60;99.90;;;;;;5026157;28;20635;-71
2022/12/04 10:09:43;;;;;;;89.47;37.13;;;1.60;99.90;;;;;;5023066;28;20196;-71
2022/12/04 10:12:39;;;;;;;92.07;37.67;;;1.60;99.90;;;;;;5026395;28;20529;-73
2022/12/04 10:15:17;;;;;;;93.50;39.07;;;1.70;99.90;;;;;;5018739;28;20247;-71
2022/12/04 10:18:06;;;;;;;95.30;38.27;;;1.70;99.90;;;;;;5026329;28;20302;-70
2022/12/04 10:20:53;;;;;;;89.80;37.30;;;1.70;99.90;;;;;;5024342;28;20246;-71
2022/12/04 10:23:47;;;;;;;94.50;38.73;;;1.70;99.90;;;;;;5025831;28;20211;-71
2022/12/04 10:26:16;;;;;;;81.37;37.23;;;1.70;99.90;;;;;;5019725;28;20226;-71
2022/12/04 10:29:11;;;;;;;87.97;37.17;;;1.70;99.90;;;;;;5021724;28;20214;-71
2022/12/04 10:31:38;;;;;;;83.43;36.07;;;1.80;99.90;;;;;;5027319;28;20694;-71
2022/12/04 10:34:20;;;;;;;120.10;56.00;;;1.80;99.90;;;;;;5022923;28;20226;-72
2022/12/04 10:36:50;;;;;;;89.53;38.40;;;1.80;99.90;;;;;;5023349;28;20587;-71
2022/12/04 10:39:20;;;;;;;90.80;40.20;;;1.70;99.90;;;;;;5026544;28;20195;-71
2022/12/04 10:42:00;;;;;;;91.20;37.30;;;1.70;99.90;;;;;;5021687;28;20662;-72
2022/12/04 10:44:26;;;;;;;87.77;37.17;;;1.80;99.90;;;;;;5026027;28;20218;-71
2022/12/04 10:46:59;;;;;;;86.47;37.70;;;1.80;99.90;;;;;;5026327;28;20330;-73
2022/12/04 10:49:30;;;;;;;84.43;36.30;;;1.80;99.90;;;;;;5022393;28;20630;-71
2022/12/04 10:51:57;;;;;;;89.07;37.50;;;1.80;99.90;;;;;;5025333;28;20216;-72
2022/12/04 10:54:39;;;;;;;93.63;37.13;;;1.80;99.90;;;;;;5024898;28;20212;-72
2022/12/04 10:57:07;;;;;;;88.70;37.43;;;1.80;99.90;;;;;;5024516;28;20543;-71
2022/12/04 10:59:33;;;;;;;86.57;37.43;;;1.80;99.90;;;;;;5026610;28;20208;-71
2022/12/04 11:02:11;;;;;;;86.83;37.60;;;1.90;99.90;;;;;;5021656;28;20209;-68
2022/12/04 11:04:36;;;;;;;83.03;35.33;;;1.90;99.90;;;;;;5023781;28;20749;-71
2022/12/04 11:07:18;;;;;;;94.13;38.53;;;1.90;99.90;;;;;;5024058;28;20214;-71
2022/12/04 11:10:02;;;;;;;81.93;36.10;;;1.80;99.90;;;;;;5019896;28;20233;-70
2022/12/04 11:12:29;;;;;;;87.50;36.10;;;1.90;99.90;;;;;;5022704;28;20181;-71
2022/12/04 11:15:04;;;;;;;90.87;37.33;;;1.80;99.90;;;;;;5022080;28;20205;-70
2022/12/04 11:17:30;;;;;;;84.27;36.43;;;1.80;99.90;;;;;;5026722;28;20204;-71
2022/12/04 11:20:05;;;;;;;90.03;36.97;;;1.90;99.90;;;;;;5023645;28;20216;-70
2022/12/04 11:22:31;;;;;;;85.23;37.77;;;1.80;99.90;;;;;;5021798;28;20206;-71
2022/12/04 11:24:58;;;;;;;83.83;37.10;;;1.80;99.90;;;;;;5026489;28;20208;-70
2022/12/04 11:27:33;;;;;;;88.83;37.10;;;1.90;99.90;;;;;;5026894;28;20211;-70
2022/12/04 11:30:09;;;;;;;80.73;35.93;;;1.90;99.90;;;;;;5019796;28;20279;-71
2022/12/04 11:32:37;;;;;;;85.27;35.83;;;1.90;99.90;;;;;;5028917;28;20619;-71
2022/12/04 11:35:22;;;;;;;87.23;38.10;;;1.90;99.90;;;;;;5021892;28;20216;-71
2022/12/04 11:38:07;;;;;;;90.77;37.67;;;1.90;99.90;;;;;;5022528;28;20590;-71
2022/12/04 11:40:33;;;;;;;87.40;36.80;;;1.90;99.90;;;;;;5020906;28;20258;-72
2022/12/04 11:43:09;;;;;;;87.73;37.47;;;1.90;99.90;;;;;;5019983;28;20734;-72
2022/12/04 11:45:35;;;;;;;76.80;34.40;;;2.00;99.90;;;;;;5028237;28;20204;-72
2022/12/04 11:48:11;;;;;;;75.30;36.17;;;2.00;99.90;;;;;;5023207;28;20188;-71
2022/12/04 11:51:01;;;;;;;83.73;35.90;;;2.00;99.90;;;;;;5025256;28;20227;-71
2022/12/04 11:53:58;;;;;;;83.63;37.83;;;2.10;99.90;;;;;;5023395;28;20224;-71
2022/12/04 11:56:31;;;;;;;87.17;37.33;;;2.00;99.90;;;;;;5026056;28;20212;-71
2022/12/04 11:59:03;;;;;;;81.63;35.70;;;2.00;99.90;;;;;;5028432;28;20625;-71
2022/12/04 12:01:55;;;;;;;85.77;35.70;;;2.00;99.90;;;;;;5030228;28;21040;-69
2022/12/04 12:04:56;;;;;;;70.00;35.07;;;2.00;99.90;;;;;;5025513;28;20219;-71
2022/12/04 12:07:31;;;;;;;82.03;36.03;;;2.00;99.90;;;;;;5027034;28;20202;-71
2022/12/04 12:10:05;;;;;;;79.43;35.50;;;2.00;99.90;;;;;;5022762;28;20312;-72
2022/12/04 12:12:54;;;;;;;85.93;36.47;;;2.00;99.90;;;;;;5031563;28;20680;-71
2022/12/04 12:15:29;;;;;;;78.30;34.83;;;2.00;99.90;;;;;;5026043;28;20180;-71
2022/12/04 12:18:26;;;;;;;88.00;33.37;;;2.00;99.90;;;;;;5025274;28;20194;-71
2022/12/04 12:21:13;;;;;;;71.97;32.37;;;2.00;99.90;;;;;;5026169;28;20679;-71
2022/12/04 12:23:55;;;;;;;78.33;33.70;;;2.00;99.90;;;;;;5025176;28;20220;-72
2022/12/04 12:26:26;;;;;;;82.03;37.00;;;2.00;99.90;;;;;;5027188;28;20779;-72
2022/12/04 12:29:29;;;;;;;69.77;32.50;;;2.10;99.90;;;;;;5023722;28;20629;-74
2022/12/04 12:32:03;;;;;;;82.00;34.23;;;2.00;99.90;;;;;;5027052;28;20209;-72
2022/12/04 12:34:28;;;;;;;78.80;33.40;;;2.00;99.90;;;;;;5025813;28;20314;-73
2022/12/04 12:36:56;;;;;;;77.43;36.63;;;2.00;99.90;;;;;;5022507;28;20313;-71
2022/12/04 12:39:35;;;;;;;73.07;34.43;;;2.00;99.90;;;;;;5030626;28;20287;-72
2022/12/04 12:42:01;;;;;;;85.07;34.83;;;2.00;99.90;;;;;;5024739;28;20175;-73
2022/12/04 12:44:39;;;;;;;87.20;35.17;;;2.00;99.90;;;;;;5024845;28;20603;-72
2022/12/04 12:47:08;;;;;;;80.53;35.53;;;2.00;99.90;;;;;;5028258;28;20205;-72
2022/12/04 12:49:44;;;;;;;80.50;37.13;;;2.00;99.90;;;;;;5023895;28;20207;-71
2022/12/04 12:52:37;;;;;;;79.77;33.53;;;2.00;99.90;;;;;;5027329;28;20204;-72
2022/12/04 12:55:13;;;;;;;82.83;35.63;;;1.90;99.90;;;;;;5027057;28;20314;-72
2022/12/04 12:57:44;;;;;;;79.43;37.13;;;2.00;99.90;;;;;;5025495;28;20235;-71
2022/12/04 13:00:19;;;;;;;89.43;35.20;;;2.00;99.90;;;;;;5028917;28;20168;-71
2022/12/04 13:03:04;;;;;;;82.33;34.67;;;2.00;99.90;;;;;;5025084;28;20264;-71
2022/12/04 13:05:38;;;;;;;79.33;34.40;;;2.00;99.90;;;;;;5026788;28;20677;-71